sensor_id;sensor_type;location;lat;lon;timestamp;pressure;altitude;pressure_sealevel;temperature;humidity
12969;BME280;6549;53.128;8.182;2022-12-11T00:01:44;100920.91;;;-0.47;100.00
12969;BME280;6549;53.128;8.182;2022-12-11T00:04:45;100923.31;;;-0.46;100.00
12969;BME280;6549;53.128;8.182;2022-12-11T00:07:45;100914.88;;;-0.44;100.00
12969;BME280;6549;53.128;8.182;2022-12-11T00:10:47;100918.72;;;-0.45;100.00
12969;BME280;6549;53.128;8.182;2022-12-11T00:13:48;100917.09;;;-0.46;100.00
12969;BME280;6549;53.128;8.182;2022-12-11T00:16:49;100913.78;;;-0.43;100.00
12969;BME280;6549;53.128;8.182;2022-12-11T00:19:49;100912.69;;;-0.42;100.00
12969;BME280;6549;53.128;8.182;2022-12-11T00:22:49;100912.69;;;-0.42;100.00
12969;BME280;6549;53.128;8.182;2022-12-11T00:25:49;100922.97;;;-0.44;100.00
12969;BME280;6549;53.128;8.182;2022-12-11T00:28:54;100923.31;;;-0.46;100.00
12969;BME280;6549;53.128;8.182;2022-12-11T00:31:55;100914.88;;;-0.44;100.00
12969;BME280;6549;53.128;8.182;2022-12-11T00:34:55;100910.47;;;-0.40;100.00
12969;BME280;6549;53.128;8.182;2022-12-11T00:37:56;100913.59;;;-0.47;100.00
12969;BME280;6549;53.128;8.182;2022-12-11T00:40:59;100916.00;;;-0.45;100.00
12969;BME280;6549;53.128;8.182;2022-12-11T00:44:00;100915.38;;;-0.42;100.00
12969;BME280;6549;53.128;8.182;2022-12-11T00:47:00;100910.97;;;-0.38;100.00
12969;BME280;6549;53.128;8.182;2022-12-11T00:50:00;100915.88;;;-0.40;100.00
12969;BME280;6549;53.128;8.182;2022-12-11T00:53:01;100918.88;;;-0.41;100.00
12969;BME280;6549;53.128;8.182;2022-12-11T00:56:09;100917.91;;;-0.46;100.00
12969;BME280;6549;53.128;8.182;2022-12-11T00:59:09;100920.09;;;-0.48;100.00
12969;BME280;6549;53.128;8.182;2022-12-11T01:02:09;100913.09;;;-0.49;100.00
12969;BME280;6549;53.128;8.182;2022-12-11T01:05:10;100912.50;;;-0.46;100.00
12969;BME280;6549;53.128;8.182;2022-12-11T01:08:10;100920.84;;;-0.33;100.00
12969;BME280;6549;53.128;8.182;2022-12-11T01:11:12;100911.25;;;-0.39;100.00
12969;BME280;6549;53.128;8.182;2022-12-11T01:14:13;100916.97;;;-0.41;100.00
12969;BME280;6549;53.128;8.182;2022-12-11T01:17:13;100919.97;;;-0.42;100.00
12969;BME280;6549;53.128;8.182;2022-12-11T01:20:14;100916.66;;;-0.39;100.00
12969;BME280;6549;53.128;8.182;2022-12-11T01:23:14;100911.25;;;-0.39;100.00
12969;BME280;6549;53.128;8.182;2022-12-11T01:26:15;100913.94;;;-0.39;100.00
12969;BME280;6549;53.128;8.182;2022-12-11T01:29:15;100914.94;;;-0.35;100.00
12969;BME280;6549;53.128;8.182;2022-12-11T01:32:16;100917.63;;;-0.35;100.00
12969;BME280;6549;53.128;8.182;2022-12-11T01:35:16;100918.13;;;-0.33;100.00
12969;BME280;6549;53.128;8.182;2022-12-11T01:38:17;100922.44;;;-0.32;100.00
12969;BME280;6549;53.128;8.182;2022-12-11T01:41:17;100917.84;;;-0.32;100.00
12969;BME280;6549;53.128;8.182;2022-12-11T01:47:18;100927.50;;;-0.31;100.00
12969;BME280;6549;53.128;8.182;2022-12-11T01:50:19;100928.94;;;-0.33;100.00
12969;BME280;6549;53.128;8.182;2022-12-11T01:53:23;100925.13;;;-0.32;100.00
12969;BME280;6549;53.128;8.182;2022-12-11T01:56:29;100916.06;;;-0.36;100.00
12969;BME280;6549;53.128;8.182;2022-12-11T01:59:33;100913.84;;;-0.34;100.00
12969;BME280;6549;53.128;8.182;2022-12-11T02:02:34;100913.03;;;-0.35;100.00
12969;BME280;6549;53.128;8.182;2022-12-11T02:05:35;100909.06;;;-0.37;100.00
12969;BME280;6549;53.128;8.182;2022-12-11T02:08:36;100907.97;;;-0.36;100.00
12969;BME280;6549;53.128;8.182;2022-12-11T02:12:00;100917.63;;;-0.35;100.00
12969;BME280;6549;53.128;8.182;2022-12-11T02:15:19;100910.03;;;-0.33;100.00
12969;BME280;6549;53.128;8.182;2022-12-11T02:18:38;100910.22;;;-0.30;100.00
12969;BME280;6549;53.128;8.182;2022-12-11T02:21:47;100908.94;;;-0.32;100.00
12969;BME280;6549;53.128;8.182;2022-12-11T02:25:09;100913.53;;;-0.33;100.00
12969;BME280;6549;53.128;8.182;2022-12-11T02:28:19;100914.63;;;-0.34;100.00
12969;BME280;6549;53.128;8.182;2022-12-11T02:31:37;100917.63;;;-0.35;100.00
12969;BME280;6549;53.128;8.182;2022-12-11T02:34:43;100914.47;;;-0.37;100.00
12969;BME280;6549;53.128;8.182;2022-12-11T02:37:46;100907.97;;;-0.36;100.00
12969;BME280;6549;53.128;8.182;2022-12-11T02:40:51;100905.72;;;-0.34;100.00
12969;BME280;6549;53.128;8.182;2022-12-11T02:43:53;100899.06;;;-0.37;100.00
12969;BME280;6549;53.128;8.182;2022-12-11T02:46:55;100906.66;;;-0.39;100.00
12969;BME280;6549;53.128;8.182;2022-12-11T02:49:59;100894.59;;;-0.41;100.00
12969;BME280;6549;53.128;8.182;2022-12-11T02:53:02;100895.69;;;-0.42;100.00
12969;BME280;6549;53.128;8.182;2022-12-11T02:56:14;100897.28;;;-0.41;100.00
12969;BME280;6549;53.128;8.182;2022-12-11T02:59:19;100894.59;;;-0.41;100.00
12969;BME280;6549;53.128;8.182;2022-12-11T03:02:21;100891.88;;;-0.41;100.00
12969;BME280;6549;53.128;8.182;2022-12-11T03:05:21;100885.19;;;-0.44;100.00
12969;BME280;6549;53.128;8.182;2022-12-11T03:08:22;100892.00;;;-0.47;100.00
12969;BME280;6549;53.128;8.182;2022-12-11T03:11:22;100894.72;;;-0.47;100.00
12969;BME280;6549;53.128;8.182;2022-12-11T03:14:23;100893.91;;;-0.47;100.00
12969;BME280;6549;53.128;8.182;2022-12-11T03:23:58;100896.72;;;-0.52;100.00
12969;BME280;6549;53.128;8.182;2022-12-11T03:27:06;100893.56;;;-0.54;100.00
12969;BME280;6549;53.128;8.182;2022-12-11T03:30:14;100894.16;;;-0.57;100.00
12969;BME280;6549;53.128;8.182;2022-12-11T03:33:42;100890.97;;;-0.59;100.00
12969;BME280;6549;53.128;8.182;2022-12-11T03:36:42;100890.47;;;-0.61;100.00
12969;BME280;6549;53.128;8.182;2022-12-11T03:39:47;100893.00;;;-0.65;100.00
12969;BME280;6549;53.128;8.182;2022-12-11T03:42:50;100888.69;;;-0.66;100.00
12969;BME280;6549;53.128;8.182;2022-12-11T03:45:52;100893.00;;;-0.65;100.00
12969;BME280;6549;53.128;8.182;2022-12-11T03:48:57;100898.38;;;-0.65;100.00
12969;BME280;6549;53.128;8.182;2022-12-11T03:51:59;100893.00;;;-0.65;100.00
12969;BME280;6549;53.128;8.182;2022-12-11T03:55:03;100891.72;;;-0.67;100.00
12969;BME280;6549;53.128;8.182;2022-12-11T03:58:05;100892.00;;;-0.69;100.00
12969;BME280;6549;53.128;8.182;2022-12-11T04:01:09;100894.72;;;-0.69;100.00
12969;BME280;6549;53.128;8.182;2022-12-11T04:04:10;100892.63;;;-0.72;100.00
12969;BME280;6549;53.128;8.182;2022-12-11T04:07:10;100897.06;;;-0.76;100.00
12969;BME280;6549;53.128;8.182;2022-12-11T04:10:11;100888.44;;;-0.78;100.00
12969;BME280;6549;53.128;8.182;2022-12-11T04:13:11;100896.06;;;-0.80;100.00
12969;BME280;6549;53.128;8.182;2022-12-11T04:16:11;100887.47;;;-0.82;100.00
12969;BME280;6549;53.128;8.182;2022-12-11T04:19:13;100894.88;;;-0.87;100.00
12969;BME280;6549;53.128;8.182;2022-12-11T04:22:32;100897.56;;;-0.87;100.00
12969;BME280;6549;53.128;8.182;2022-12-11T04:25:50;100894.06;;;-0.88;100.00
12969;BME280;6549;53.128;8.182;2022-12-11T04:28:51;100894.88;;;-0.87;100.00
12969;BME280;6549;53.128;8.182;2022-12-11T04:31:51;100893.28;;;-0.88;100.00
12969;BME280;6549;53.128;8.182;2022-12-11T04:34:51;100897.09;;;-0.89;100.00
12969;BME280;6549;53.128;8.182;2022-12-11T04:37:52;100897.22;;;-0.95;100.00
12969;BME280;6549;53.128;8.182;2022-12-11T04:40:59;100903.41;;;-0.94;100.00
12969;BME280;6549;53.128;8.182;2022-12-11T04:44:00;100897.50;;;-0.96;100.00
12969;BME280;6549;53.128;8.182;2022-12-11T04:47:00;100898.31;;;-0.96;100.00
12969;BME280;6549;53.128;8.182;2022-12-11T04:50:01;100898.00;;;-0.94;100.00
12969;BME280;6549;53.128;8.182;2022-12-11T04:53:02;100901.31;;;-0.97;100.00
12969;BME280;6549;53.128;8.182;2022-12-11T04:56:07;100899.22;;;-1.00;100.00
12969;BME280;6549;53.128;8.182;2022-12-11T04:59:07;100896.34;;;-1.04;100.00
12969;BME280;6549;53.128;8.182;2022-12-11T05:02:08;100897.25;;;-1.08;100.00
12969;BME280;6549;53.128;8.182;2022-12-11T05:05:09;100899.94;;;-1.08;100.00
12969;BME280;6549;53.128;8.182;2022-12-11T05:08:09;100893.75;;;-1.09;100.00
12969;BME280;6549;53.128;8.182;2022-12-11T05:11:12;100899.25;;;-1.14;100.00
12969;BME280;6549;53.128;8.182;2022-12-11T05:14:13;100892.06;;;-1.18;100.00
12969;BME280;6549;53.128;8.182;2022-12-11T05:17:13;100893.38;;;-1.16;100.00
12969;BME280;6549;53.128;8.182;2022-12-11T05:20:13;100890.97;;;-1.17;100.00
12969;BME280;6549;53.128;8.182;2022-12-11T05:23:14;100897.47;;;-1.18;100.00
12969;BME280;6549;53.128;8.182;2022-12-11T05:26:18;100898.09;;;-1.21;100.00
12969;BME280;6549;53.128;8.182;2022-12-11T05:29:18;100902.38;;;-1.20;100.00
12969;BME280;6549;53.128;8.182;2022-12-11T05:32:18;100901.59;;;-1.21;100.00
12969;BME280;6549;53.128;8.182;2022-12-11T05:35:19;100907.56;;;-1.24;100.00
12969;BME280;6549;53.128;8.182;2022-12-11T05:38:19;100903.28;;;-1.25;100.00
12969;BME280;6549;53.128;8.182;2022-12-11T05:41:22;100906.47;;;-1.23;100.00
12969;BME280;6549;53.128;8.182;2022-12-11T05:44:23;100904.88;;;-1.24;100.00
12969;BME280;6549;53.128;8.182;2022-12-11T05:47:24;100898.19;;;-1.26;100.00
12969;BME280;6549;53.128;8.182;2022-12-11T05:50:24;100903.59;;;-1.26;100.00
12969;BME280;6549;53.128;8.182;2022-12-11T05:53:25;100901.19;;;-1.28;100.00
12969;BME280;6549;53.128;8.182;2022-12-11T05:56:28;100897.72;;;-1.28;100.00
12969;BME280;6549;53.128;8.182;2022-12-11T05:59:28;100899.91;;;-1.30;100.00
12969;BME280;6549;53.128;8.182;2022-12-11T06:02:29;100894.63;;;-1.36;100.00
12969;BME280;6549;53.128;8.182;2022-12-11T06:05:29;100902.22;;;-1.38;100.00
12969;BME280;6549;53.128;8.182;2022-12-11T06:08:30;100901.72;;;-1.40;100.00
12969;BME280;6549;53.128;8.182;2022-12-11T06:11:32;100904.41;;;-1.40;100.00
12969;BME280;6549;53.128;8.182;2022-12-11T06:14:32;100900.63;;;-1.39;100.00
12969;BME280;6549;53.128;8.182;2022-12-11T06:17:33;100900.91;;;-1.40;100.00
12969;BME280;6549;53.128;8.182;2022-12-11T06:20:34;100890.63;;;-1.38;100.00
12969;BME280;6549;53.128;8.182;2022-12-11T06:23:34;100886.81;;;-1.37;100.00
12969;BME280;6549;53.128;8.182;2022-12-11T06:26:35;100892.22;;;-1.37;100.00
12969;BME280;6549;53.128;8.182;2022-12-11T06:29:35;100895.22;;;-1.39;100.00
12969;BME280;6549;53.128;8.182;2022-12-11T06:32:35;100884.13;;;-1.37;100.00
12969;BME280;6549;53.128;8.182;2022-12-11T06:35:35;100879.84;;;-1.38;100.00
12969;BME280;6549;53.128;8.182;2022-12-11T06:38:36;100889.03;;;-1.39;100.00
12969;BME280;6549;53.128;8.182;2022-12-11T06:41:37;100881.75;;;-1.39;100.00
12969;BME280;6549;53.128;8.182;2022-12-11T06:44:37;100880.94;;;-1.39;100.00
12969;BME280;6549;53.128;8.182;2022-12-11T06:47:37;100880.94;;;-1.39;100.00
12969;BME280;6549;53.128;8.182;2022-12-11T06:50:38;100880.16;;;-1.40;100.00
12969;BME280;6549;53.128;8.182;2022-12-11T06:53:38;100892.81;;;-1.40;100.00
12969;BME280;6549;53.128;8.182;2022-12-11T06:56:39;100895.72;;;-1.37;100.00
12969;BME280;6549;53.128;8.182;2022-12-11T06:59:39;100901.19;;;-1.42;100.00
12969;BME280;6549;53.128;8.182;2022-12-11T07:02:40;100895.03;;;-1.42;100.00
12969;BME280;6549;53.128;8.182;2022-12-11T07:05:40;100903.91;;;-1.42;100.00
12969;BME280;6549;53.128;8.182;2022-12-11T07:08:41;100907.41;;;-1.41;100.00
12969;BME280;6549;53.128;8.182;2022-12-11T07:11:42;100909.28;;;-1.42;100.00
12969;BME280;6549;53.128;8.182;2022-12-11T07:14:42;100906.31;;;-1.40;100.00
12969;BME280;6549;53.128;8.182;2022-12-11T07:17:43;100910.41;;;-1.43;100.00
12969;BME280;6549;53.128;8.182;2022-12-11T07:20:43;100908.19;;;-1.41;100.00
12969;BME280;6549;53.128;8.182;2022-12-11T07:23:43;100921.38;;;-1.39;100.00
12969;BME280;6549;53.128;8.182;2022-12-11T07:26:44;100915.00;;;-1.43;100.00
12969;BME280;6549;53.128;8.182;2022-12-11T07:29:44;100923.28;;;-1.40;100.00
12969;BME280;6549;53.128;8.182;2022-12-11T07:32:45;100919.97;;;-1.37;100.00
12969;BME280;6549;53.128;8.182;2022-12-11T07:35:45;100912.38;;;-1.34;100.00
12969;BME280;6549;53.128;8.182;2022-12-11T07:38:45;100913.19;;;-1.34;100.00
12969;BME280;6549;53.128;8.182;2022-12-11T07:41:46;100916.38;;;-1.32;100.00
12969;BME280;6549;53.128;8.182;2022-12-11T07:44:46;100917.78;;;-1.34;100.00
12969;BME280;6549;53.128;8.182;2022-12-11T07:47:46;100914.00;;;-1.33;100.00
12969;BME280;6549;53.128;8.182;2022-12-11T07:50:47;100912.38;;;-1.34;100.00
12969;BME280;6549;53.128;8.182;2022-12-11T07:53:48;100919.38;;;-1.33;100.00
12969;BME280;6549;53.128;8.182;2022-12-11T07:56:48;100921.19;;;-1.29;100.00
12969;BME280;6549;53.128;8.182;2022-12-11T07:59:49;100918.78;;;-1.30;100.00
12969;BME280;6549;53.128;8.182;2022-12-11T08:02:49;100917.16;;;-1.31;100.00
12969;BME280;6549;53.128;8.182;2022-12-11T08:05:51;100914.78;;;-1.33;100.00
12969;BME280;6549;53.128;8.182;2022-12-11T08:08:53;100913.47;;;-1.36;100.00
12969;BME280;6549;53.128;8.182;2022-12-11T08:11:53;100919.16;;;-1.37;100.00
12969;BME280;6549;53.128;8.182;2022-12-11T08:14:53;100918.41;;;-1.38;100.00
12969;BME280;6549;53.128;8.182;2022-12-11T08:17:54;100913.00;;;-1.38;100.00
12969;BME280;6549;53.128;8.182;2022-12-11T08:20:54;100919.78;;;-1.40;100.00
12969;BME280;6549;53.128;8.182;2022-12-11T08:23:54;100924.38;;;-1.41;100.00
12969;BME280;6549;53.128;8.182;2022-12-11T08:26:55;100925.47;;;-1.42;100.00
12969;BME280;6549;53.128;8.182;2022-12-11T08:29:55;100925.69;;;-1.38;100.00
12969;BME280;6549;53.128;8.182;2022-12-11T08:32:56;100931.25;;;-1.34;100.00
12969;BME280;6549;53.128;8.182;2022-12-11T08:35:56;100919.69;;;-1.35;100.00
12969;BME280;6549;53.128;8.182;2022-12-11T08:38:57;100919.06;;;-1.32;100.00
12969;BME280;6549;53.128;8.182;2022-12-11T08:41:57;100917.16;;;-1.31;100.00
12969;BME280;6549;53.128;8.182;2022-12-11T08:44:57;100920.19;;;-1.33;100.00
12969;BME280;6549;53.128;8.182;2022-12-11T08:47:58;100923.38;;;-1.31;100.00
12969;BME280;6549;53.128;8.182;2022-12-11T08:51:04;100926.34;;;-1.32;100.00
12969;BME280;6549;53.128;8.182;2022-12-11T08:54:04;100925.75;;;-1.29;100.00
12969;BME280;6549;53.128;8.182;2022-12-11T08:57:05;100931.16;;;-1.29;100.00
12969;BME280;6549;53.128;8.182;2022-12-11T09:00:12;100934.16;;;-1.31;100.00
12969;BME280;6549;53.128;8.182;2022-12-11T09:03:12;100944.63;;;-1.29;100.00
12969;BME280;6549;53.128;8.182;2022-12-11T09:06:16;100937.84;;;-1.27;100.00
12969;BME280;6549;53.128;8.182;2022-12-11T09:09:17;100933.75;;;-1.24;100.00
12969;BME280;6549;53.128;8.182;2022-12-11T09:12:17;100939.16;;;-1.24;100.00
12969;BME280;6549;53.128;8.182;2022-12-11T09:15:18;100932.94;;;-1.25;100.00
12969;BME280;6549;53.128;8.182;2022-12-11T09:18:18;100926.44;;;-1.24;100.00
12969;BME280;6549;53.128;8.182;2022-12-11T09:21:21;100929.13;;;-1.24;100.00
12969;BME280;6549;53.128;8.182;2022-12-11T09:24:22;100932.53;;;-1.32;100.00
12969;BME280;6549;53.128;8.182;2022-12-11T09:27:22;100933.53;;;-1.28;100.00
12969;BME280;6549;53.128;8.182;2022-12-11T09:30:22;100925.66;;;-1.24;100.00
12969;BME280;6549;53.128;8.182;2022-12-11T09:33:23;100926.66;;;-1.20;100.00
12969;BME280;6549;53.128;8.182;2022-12-11T09:36:24;100922.16;;;-1.25;100.00
12969;BME280;6549;53.128;8.182;2022-12-11T09:39:24;100932.34;;;-1.22;100.00
12969;BME280;6549;53.128;8.182;2022-12-11T09:45:50;100929.03;;;-1.19;100.00
12969;BME280;6549;53.128;8.182;2022-12-11T09:48:51;100929.81;;;-1.18;100.00
12969;BME280;6549;53.128;8.182;2022-12-11T09:55:12;100919.22;;;-1.15;100.00
12969;BME280;6549;53.128;8.182;2022-12-11T10:02:45;100916.06;;;-1.17;100.00
12969;BME280;6549;53.128;8.182;2022-12-11T10:05:21;100905.56;;;-1.18;100.00
12969;BME280;6549;53.128;8.182;2022-12-11T10:08:50;100913.66;;;-1.18;100.00
12969;BME280;6549;53.128;8.182;2022-12-11T10:18:24;100900.97;;;-1.18;100.00
12969;BME280;6549;53.128;8.182;2022-12-11T10:21:25;100902.38;;;-1.20;100.00
12969;BME280;6549;53.128;8.182;2022-12-11T10:24:37;100905.28;;;-1.17;100.00
12969;BME280;6549;53.128;8.182;2022-12-11T10:27:40;100902.13;;;-1.10;100.00
12969;BME280;6549;53.128;8.182;2022-12-11T10:30:48;100903.75;;;-1.09;100.00
12969;BME280;6549;53.128;8.182;2022-12-11T10:33:59;100905.16;;;-1.12;100.00
12969;BME280;6549;53.128;8.182;2022-12-11T10:37:00;100900.56;;;-1.11;100.00
12969;BME280;6549;53.128;8.182;2022-12-11T10:40:01;100895.47;;;-1.13;100.00
12969;BME280;6549;53.128;8.182;2022-12-11T10:43:01;100894.19;;;-1.15;100.00
12969;BME280;6549;53.128;8.182;2022-12-11T10:46:02;100894.78;;;-1.18;100.00
12969;BME280;6549;53.128;8.182;2022-12-11T10:49:03;100894.28;;;-1.20;100.00
12969;BME280;6549;53.128;8.182;2022-12-11T10:52:41;100887.31;;;-1.21;100.00
12969;BME280;6549;53.128;8.182;2022-12-11T10:55:44;100892.41;;;-1.20;100.00
12969;BME280;6549;53.128;8.182;2022-12-11T10:58:48;100888.28;;;-1.17;100.00
12969;BME280;6549;53.128;8.182;2022-12-11T11:01:49;100886.41;;;-1.17;100.00
12969;BME280;6549;53.128;8.182;2022-12-11T11:04:50;100888.91;;;-1.20;100.00
12969;BME280;6549;53.128;8.182;2022-12-11T11:08:01;100879.22;;;-1.21;100.00
12969;BME280;6549;53.128;8.182;2022-12-11T11:11:02;100869.81;;;-1.24;100.00
12969;BME280;6549;53.128;8.182;2022-12-11T11:17:13;100880.91;;;-1.25;100.00
12969;BME280;6549;53.128;8.182;2022-12-11T11:20:17;100883.63;;;-1.25;100.00
12969;BME280;6549;53.128;8.182;2022-12-11T11:23:19;100872.22;;;-1.22;100.00
12969;BME280;6549;53.128;8.182;2022-12-11T11:26:23;100869.53;;;-1.22;100.00
12969;BME280;6549;53.128;8.182;2022-12-11T11:29:28;100871.59;;;-1.19;100.00
12969;BME280;6549;53.128;8.182;2022-12-11T11:32:35;100865.91;;;-1.18;100.00
12969;BME280;6549;53.128;8.182;2022-12-11T11:35:37;100868.91;;;-1.19;100.00
12969;BME280;6549;53.128;8.182;2022-12-11T11:38:45;100855.41;;;-1.19;100.00
12969;BME280;6549;53.128;8.182;2022-12-11T11:41:52;100861.44;;;-1.22;100.00
12969;BME280;6549;53.128;8.182;2022-12-11T11:45:02;100848.25;;;-1.24;100.00
12969;BME280;6549;53.128;8.182;2022-12-11T11:51:35;100866.81;;;-1.22;100.00
12969;BME280;6549;53.128;8.182;2022-12-11T11:58:01;100872.84;;;-1.25;100.00
12969;BME280;6549;53.128;8.182;2022-12-11T12:01:02;100868.44;;;-1.21;100.00
12969;BME280;6549;53.128;8.182;2022-12-11T12:04:03;100868.44;;;-1.21;100.00
12969;BME280;6549;53.128;8.182;2022-12-11T12:07:12;100871.59;;;-1.19;100.00
12969;BME280;6549;53.128;8.182;2022-12-11T12:23:42;100865.03;;;-1.27;100.00
12969;BME280;6549;53.128;8.182;2022-12-11T12:26:53;100859.03;;;-1.24;100.00
12969;BME280;6549;53.128;8.182;2022-12-11T12:30:06;100854.94;;;-1.21;100.00
12969;BME280;6549;53.128;8.182;2022-12-11T12:33:25;100861.44;;;-1.22;100.00
12969;BME280;6549;53.128;8.182;2022-12-11T12:40:29;100858.75;;;-1.22;100.00
12969;BME280;6549;53.128;8.182;2022-12-11T12:49:58;100851.88;;;-1.06;100.00
12969;BME280;6549;53.128;8.182;2022-12-11T12:53:00;100857.41;;;-1.11;100.00
12969;BME280;6549;53.128;8.182;2022-12-11T12:56:02;100853.31;;;-1.09;100.00
12969;BME280;6549;53.128;8.182;2022-12-11T12:59:03;100853.00;;;-1.07;100.00
12969;BME280;6549;53.128;8.182;2022-12-11T13:02:04;100852.22;;;-1.08;100.00
12969;BME280;6549;53.128;8.182;2022-12-11T13:05:18;100856.50;;;-1.07;100.00
12969;BME280;6549;53.128;8.182;2022-12-11T13:08:48;100849.44;;;-1.16;100.00
12969;BME280;6549;53.128;8.182;2022-12-11T13:11:51;100858.00;;;-1.14;100.00
12969;BME280;6549;53.128;8.182;2022-12-11T13:14:58;100858.75;;;-1.22;100.00
12969;BME280;6549;53.128;8.182;2022-12-11T13:18:05;100849.66;;;-1.26;100.00
12969;BME280;6549;53.128;8.182;2022-12-11T13:21:35;100847.84;;;-1.17;100.00
12969;BME280;6549;53.128;8.182;2022-12-11T13:28:03;100855.81;;;-1.12;100.00
12969;BME280;6549;53.128;8.182;2022-12-11T13:34:22;100866.91;;;-1.14;100.00
12969;BME280;6549;53.128;8.182;2022-12-11T13:37:30;100855.63;;;-1.16;100.00
12969;BME280;6549;53.128;8.182;2022-12-11T13:40:38;100867.00;;;-1.19;100.00
12969;BME280;6549;53.128;8.182;2022-12-11T13:43:40;100858.81;;;-1.14;100.00
12969;BME280;6549;53.128;8.182;2022-12-11T13:46:43;100873.59;;;-1.11;100.00
12969;BME280;6549;53.128;8.182;2022-12-11T13:49:47;100868.78;;;-1.14;100.00
12969;BME280;6549;53.128;8.182;2022-12-11T13:52:53;100866.91;;;-1.14;100.00
12969;BME280;6549;53.128;8.182;2022-12-11T13:56:01;100872.81;;;-1.12;100.00
12969;BME280;6549;53.128;8.182;2022-12-11T13:59:02;100870.41;;;-1.13;100.00
12969;BME280;6549;53.128;8.182;2022-12-11T14:02:30;100859.78;;;-1.10;100.00
12969;BME280;6549;53.128;8.182;2022-12-11T14:05:33;100859.00;;;-1.10;100.00
12969;BME280;6549;53.128;8.182;2022-12-11T14:08:35;100862.19;;;-1.08;100.00
12969;BME280;6549;53.128;8.182;2022-12-11T14:11:40;100859.97;;;-1.06;100.00
12969;BME280;6549;53.128;8.182;2022-12-11T14:14:46;100864.66;;;-0.98;100.00
12969;BME280;6549;53.128;8.182;2022-12-11T14:17:49;100861.41;;;-1.09;100.00
12969;BME280;6549;53.128;8.182;2022-12-11T14:20:54;100859.78;;;-1.10;100.00
12969;BME280;6549;53.128;8.182;2022-12-11T14:24:00;100855.19;;;-1.09;100.00
12969;BME280;6549;53.128;8.182;2022-12-11T14:27:02;100864.28;;;-1.05;100.00
12969;BME280;6549;53.128;8.182;2022-12-11T14:30:10;100852.81;;;-1.11;100.00
12969;BME280;6549;53.128;8.182;2022-12-11T14:33:11;100848.41;;;-1.07;100.00
12969;BME280;6549;53.128;8.182;2022-12-11T14:36:13;100850.50;;;-1.04;100.00
12969;BME280;6549;53.128;8.182;2022-12-11T14:39:39;100856.88;;;-1.00;100.00
12969;BME280;6549;53.128;8.182;2022-12-11T14:42:44;100852.28;;;-0.99;100.00
12969;BME280;6549;53.128;8.182;2022-12-11T14:45:47;100853.38;;;-1.00;100.00
12969;BME280;6549;53.128;8.182;2022-12-11T14:48:56;100842.28;;;-0.99;100.00
12969;BME280;6549;53.128;8.182;2022-12-11T14:51:58;100851.66;;;-0.96;100.00
12969;BME280;6549;53.128;8.182;2022-12-11T14:55:14;100850.50;;;-1.04;100.00
12969;BME280;6549;53.128;8.182;2022-12-11T14:58:22;100852.69;;;-1.06;100.00
12969;BME280;6549;53.128;8.182;2022-12-11T15:01:36;100850.44;;;-1.12;100.00
12969;BME280;6549;53.128;8.182;2022-12-11T15:04:36;100857.16;;;-1.01;100.00
12969;BME280;6549;53.128;8.182;2022-12-11T15:07:37;100864.28;;;-1.05;100.00
12969;BME280;6549;53.128;8.182;2022-12-11T15:10:58;100859.78;;;-1.10;100.00
12969;BME280;6549;53.128;8.182;2022-12-11T15:14:02;100865.69;;;-1.08;100.00
12969;BME280;6549;53.128;8.182;2022-12-11T15:17:03;100879.34;;;-1.04;100.00
12969;BME280;6549;53.128;8.182;2022-12-11T15:20:25;100863.78;;;-1.07;100.00
12969;BME280;6549;53.128;8.182;2022-12-11T15:23:28;100863.75;;;-0.94;100.00
12969;BME280;6549;53.128;8.182;2022-12-11T15:26:34;100861.19;;;-0.76;100.00
12969;BME280;6549;53.128;8.182;2022-12-11T15:29:37;100862.09;;;-1.03;100.00
12969;BME280;6549;53.128;8.182;2022-12-11T15:32:38;100870.91;;;-1.11;100.00
12969;BME280;6549;53.128;8.182;2022-12-11T15:35:39;100875.97;;;-1.10;100.00
12969;BME280;6549;53.128;8.182;2022-12-11T15:38:49;100869.13;;;-1.16;100.00
12969;BME280;6549;53.128;8.182;2022-12-11T15:41:51;100877.88;;;-1.10;100.00
12969;BME280;6549;53.128;8.182;2022-12-11T15:44:52;100873.91;;;-1.13;100.00
12969;BME280;6549;53.128;8.182;2022-12-11T15:47:54;100871.38;;;-1.09;100.00
12969;BME280;6549;53.128;8.182;2022-12-11T15:50:55;100864.19;;;-1.14;100.00
12969;BME280;6549;53.128;8.182;2022-12-11T15:53:55;100866.50;;;-1.07;100.00
12969;BME280;6549;53.128;8.182;2022-12-11T15:57:03;100864.53;;;-1.15;100.00
12969;BME280;6549;53.128;8.182;2022-12-11T16:00:05;100871.00;;;-1.16;100.00
12969;BME280;6549;53.128;8.182;2022-12-11T16:03:09;100872.72;;;-1.20;100.00
12969;BME280;6549;53.128;8.182;2022-12-11T16:06:12;100867.22;;;-1.15;100.00
12969;BME280;6549;53.128;8.182;2022-12-11T16:09:12;100864.25;;;-1.27;100.00
12969;BME280;6549;53.128;8.182;2022-12-11T16:12:13;100866.72;;;-1.17;100.00
12969;BME280;6549;53.128;8.182;2022-12-11T16:15:13;100873.19;;;-1.18;100.00
12969;BME280;6549;53.128;8.182;2022-12-11T16:18:17;100865.81;;;-1.13;100.00
12969;BME280;6549;53.128;8.182;2022-12-11T16:21:18;100860.22;;;-1.16;100.00
12969;BME280;6549;53.128;8.182;2022-12-11T16:24:18;100863.31;;;-1.23;100.00
12969;BME280;6549;53.128;8.182;2022-12-11T16:27:18;100871.31;;;-1.18;100.00
12969;BME280;6549;53.128;8.182;2022-12-11T16:30:19;100867.53;;;-1.17;100.00
12969;BME280;6549;53.128;8.182;2022-12-11T16:33:19;100870.41;;;-1.13;100.00
12969;BME280;6549;53.128;8.182;2022-12-11T16:36:19;100870.09;;;-1.12;100.00
12969;BME280;6549;53.128;8.182;2022-12-11T16:39:19;100875.09;;;-1.19;100.00
12969;BME280;6549;53.128;8.182;2022-12-11T16:42:20;100878.50;;;-1.13;100.00
12969;BME280;6549;53.128;8.182;2022-12-11T16:45:23;100871.72;;;-1.11;100.00
12969;BME280;6549;53.128;8.182;2022-12-11T16:48:24;100882.50;;;-1.11;100.00
12969;BME280;6549;53.128;8.182;2022-12-11T16:51:24;100876.88;;;-1.14;100.00
12969;BME280;6549;53.128;8.182;2022-12-11T16:54:25;100882.59;;;-1.16;100.00
12969;BME280;6549;53.128;8.182;2022-12-11T16:57:25;100884.97;;;-1.14;100.00
12969;BME280;6549;53.128;8.182;2022-12-11T17:00:25;100886.56;;;-1.13;100.00
12969;BME280;6549;53.128;8.182;2022-12-11T17:03:30;100880.47;;;-1.05;100.00
12969;BME280;6549;53.128;8.182;2022-12-11T17:06:31;100873.97;;;-1.04;100.00